createdAt,value
2017-09-14T00:01:18.028Z,11.40
2017-09-14T00:03:46.293Z,11.50
2017-09-14T00:06:15.478Z,11.40
2017-09-14T00:08:44.157Z,11.40
2017-09-14T00:11:13.399Z,11.40
2017-09-14T00:13:42.526Z,11.40
2017-09-14T00:16:10.989Z,11.40
2017-09-14T00:18:39.491Z,11.40
2017-09-14T00:21:07.690Z,11.40
2017-09-14T00:23:35.831Z,11.50
2017-09-14T00:26:04.335Z,11.50
2017-09-14T00:28:32.600Z,11.50
2017-09-14T00:31:00.871Z,11.50
2017-09-14T00:36:06.238Z,11.40
2017-09-14T00:38:34.434Z,11.40
2017-09-14T00:41:02.684Z,11.50
2017-09-14T00:43:31.199Z,11.50
2017-09-14T00:45:59.450Z,11.40
2017-09-14T00:48:28.710Z,11.40
2017-09-14T00:50:56.914Z,11.40
2017-09-14T00:53:25.348Z,11.40
2017-09-14T00:55:53.594Z,11.30
2017-09-14T01:00:54.552Z,11.30
2017-09-14T01:03:22.796Z,11.20
2017-09-14T01:05:51.042Z,11.30
2017-09-14T01:08:19.240Z,11.20
2017-09-14T01:10:47.486Z,11.30
2017-09-14T01:13:15.810Z,11.20
2017-09-14T01:15:46.753Z,11.20
2017-09-14T01:18:15.528Z,11.20
2017-09-14T01:20:43.783Z,11.10
2017-09-14T01:23:12.017Z,11.10
2017-09-14T01:25:40.230Z,11.10
2017-09-14T01:30:41.721Z,11.10
2017-09-14T01:33:09.953Z,11.10
2017-09-14T01:35:38.453Z,11.10
2017-09-14T01:38:06.942Z,11.10
2017-09-14T01:40:35.325Z,11.00
2017-09-14T01:43:03.570Z,11.00
2017-09-14T01:45:31.809Z,11.00
2017-09-14T01:48:00.026Z,11.00
2017-09-14T01:50:28.189Z,11.00
2017-09-14T01:52:56.456Z,11.00
2017-09-14T01:55:24.567Z,11.00
2017-09-14T01:57:52.797Z,11.00
2017-09-14T02:00:21.719Z,11.00
2017-09-14T02:02:49.889Z,11.00
2017-09-14T02:05:18.039Z,11.00
2017-09-14T02:07:46.256Z,10.90
2017-09-14T02:10:14.454Z,10.90
2017-09-14T02:12:42.714Z,10.90
2017-09-14T02:15:10.892Z,10.90
2017-09-14T02:17:39.130Z,10.90
2017-09-14T02:20:15.803Z,10.90
2017-09-14T02:22:44.120Z,10.90
2017-09-14T02:25:12.686Z,10.90
2017-09-14T02:27:40.837Z,10.80
2017-09-14T02:30:09.050Z,10.90
2017-09-14T02:32:37.552Z,10.90
2017-09-14T02:35:05.725Z,10.90
2017-09-14T02:37:34.021Z,10.90
2017-09-14T02:40:02.864Z,10.80
2017-09-14T02:42:31.231Z,10.90
2017-09-14T02:45:00.766Z,10.80
2017-09-14T02:47:29.126Z,10.80
2017-09-14T02:49:57.397Z,10.80
2017-09-14T02:52:25.560Z,10.80
2017-09-14T02:54:53.969Z,10.80
2017-09-14T02:57:22.143Z,10.80
2017-09-14T02:59:50.322Z,10.70
2017-09-14T03:02:19.313Z,10.70
2017-09-14T03:04:47.511Z,10.80
2017-09-14T03:07:15.730Z,10.70
2017-09-14T03:09:44.738Z,10.70
2017-09-14T03:12:12.889Z,10.70
2017-09-14T03:14:41.066Z,10.70
2017-09-14T03:17:09.276Z,10.70
2017-09-14T03:19:37.509Z,10.70
2017-09-14T03:22:06.546Z,10.70
2017-09-14T03:24:34.844Z,10.70
2017-09-14T03:27:02.964Z,10.70
2017-09-14T03:29:31.116Z,10.70
2017-09-14T03:31:59.248Z,10.60
2017-09-14T03:34:28.806Z,10.60
2017-09-14T03:36:57.056Z,10.60
2017-09-14T03:39:26.105Z,10.60
2017-09-14T03:41:55.187Z,10.60
2017-09-14T03:44:25.791Z,10.50
2017-09-14T03:46:56.859Z,10.50
2017-09-14T03:49:25.800Z,10.50
2017-09-14T03:52:14.294Z,10.50
2017-09-14T03:54:43.146Z,10.50
2017-09-14T03:57:12.077Z,10.50
2017-09-14T03:59:41.547Z,10.40
2017-09-14T04:02:09.676Z,10.40
2017-09-14T04:04:37.822Z,10.40
2017-09-14T04:07:07.027Z,10.40
2017-09-14T04:09:35.223Z,10.40
2017-09-14T04:12:14.492Z,10.40
2017-09-14T04:14:43.297Z,10.40
2017-09-14T04:17:11.991Z,10.40
2017-09-14T04:19:40.178Z,10.40
2017-09-14T04:22:08.303Z,10.40
2017-09-14T04:24:36.626Z,10.40
2017-09-14T04:27:04.900Z,10.50
2017-09-14T04:29:33.909Z,10.40
2017-09-14T04:32:02.261Z,10.40
2017-09-14T04:34:34.132Z,10.50
2017-09-14T04:37:02.327Z,10.40
2017-09-14T04:39:30.523Z,10.40
2017-09-14T04:41:58.619Z,10.40
2017-09-14T04:44:26.806Z,10.40
2017-09-14T04:46:55.682Z,10.40
2017-09-14T04:49:24.761Z,10.40
2017-09-14T04:51:53.983Z,10.50
2017-09-14T04:54:22.926Z,10.50
2017-09-14T04:56:51.321Z,10.40
2017-09-14T04:59:19.422Z,10.50
2017-09-14T05:01:47.606Z,10.50
2017-09-14T05:04:15.843Z,10.50
2017-09-14T05:06:44.011Z,10.50
2017-09-14T05:09:12.227Z,10.50
2017-09-14T05:11:40.502Z,10.50
2017-09-14T05:14:08.840Z,10.50
2017-09-14T05:16:36.958Z,10.50
2017-09-14T05:19:06.655Z,10.50
2017-09-14T05:21:35.045Z,10.60
2017-09-14T05:24:04.150Z,10.60
2017-09-14T05:26:33.119Z,10.60
2017-09-14T05:29:01.248Z,10.60
2017-09-14T05:31:29.488Z,10.60
2017-09-14T05:34:01.099Z,10.60
2017-09-14T05:36:29.382Z,10.60
2017-09-14T05:38:57.511Z,10.60
2017-09-14T05:41:25.707Z,10.60
2017-09-14T05:43:53.896Z,10.60
2017-09-14T05:46:22.024Z,10.60
2017-09-14T05:48:50.222Z,10.70
2017-09-14T05:51:18.438Z,10.70
2017-09-14T05:53:46.588Z,10.80
2017-09-14T05:56:14.760Z,10.80
2017-09-14T05:58:42.975Z,10.80
2017-09-14T06:01:11.276Z,10.80
2017-09-14T06:03:39.627Z,10.80
2017-09-14T06:06:08.122Z,10.80
2017-09-14T06:08:36.264Z,10.80
2017-09-14T06:11:04.466Z,10.80
2017-09-14T06:13:33.423Z,10.90
2017-09-14T06:16:26.535Z,10.90
2017-09-14T06:18:55.692Z,11.00
2017-09-14T06:21:25.516Z,11.00
2017-09-14T06:23:53.723Z,11.00
2017-09-14T06:26:22.766Z,11.10
2017-09-14T06:28:51.012Z,11.10
2017-09-14T06:31:19.226Z,11.20
2017-09-14T06:33:47.371Z,11.20
2017-09-14T06:36:24.561Z,11.30
2017-09-14T06:38:52.663Z,11.30
2017-09-14T06:44:30.390Z,11.40
2017-09-14T06:46:58.860Z,11.40
2017-09-14T06:49:27.113Z,11.50
2017-09-14T06:51:55.365Z,11.50
2017-09-14T06:54:23.619Z,11.60
2017-09-14T06:56:51.828Z,11.60
2017-09-14T06:59:20.014Z,11.70
2017-09-14T07:01:48.164Z,11.80
2017-09-14T07:04:16.406Z,11.90
2017-09-14T07:06:44.603Z,12.10
2017-09-14T07:09:12.807Z,12.10
2017-09-14T07:11:41.059Z,12.00
2017-09-14T07:14:09.421Z,12.10
2017-09-14T07:16:38.347Z,12.10
2017-09-14T07:19:06.515Z,12.20
2017-09-14T07:21:34.713Z,12.20
2017-09-14T07:24:03.233Z,12.20
2017-09-14T07:26:31.464Z,12.40
2017-09-14T07:29:10.705Z,12.50
2017-09-14T07:31:38.919Z,12.60
2017-09-14T07:34:07.117Z,12.60
2017-09-14T07:36:37.764Z,12.60
2017-09-14T07:39:05.893Z,12.70
2017-09-14T07:41:34.596Z,12.90
2017-09-14T07:44:05.203Z,13.00
2017-09-14T07:46:34.020Z,13.00
2017-09-14T07:49:02.230Z,13.00
2017-09-14T07:51:30.384Z,13.10
2017-09-14T07:53:58.566Z,13.20
2017-09-14T07:56:26.755Z,13.20
2017-09-14T07:58:55.008Z,13.40
2017-09-14T08:01:23.254Z,13.30
2017-09-14T08:03:51.506Z,13.40
2017-09-14T08:06:19.818Z,13.50
2017-09-14T08:08:48.095Z,13.50
2017-09-14T08:11:16.190Z,13.60
2017-09-14T08:13:44.365Z,14.00
2017-09-14T08:16:15.648Z,14.20
2017-09-14T08:21:52.524Z,14.40
2017-09-14T08:24:22.066Z,14.40
2017-09-14T08:26:50.271Z,14.40
2017-09-14T08:29:18.553Z,14.50
2017-09-14T08:31:53.103Z,14.60
2017-09-14T08:34:21.387Z,14.60
2017-09-14T08:36:49.569Z,14.50
2017-09-14T08:39:17.746Z,14.60
2017-09-14T08:41:46.748Z,14.90
2017-09-14T08:44:16.478Z,14.80
2017-09-14T08:52:47.800Z,14.70
2017-09-14T08:55:20.533Z,15.00
2017-09-14T08:57:49.067Z,15.10
2017-09-14T09:03:29.167Z,15.10
2017-09-14T09:05:58.150Z,15.00
2017-09-14T09:08:26.687Z,15.00
2017-09-14T09:10:54.981Z,14.80
2017-09-14T09:13:23.296Z,14.90
2017-09-14T09:16:08.394Z,15.10
2017-09-14T09:18:37.420Z,15.10
2017-09-14T09:21:05.672Z,15.20
2017-09-14T09:23:34.356Z,15.30
2017-09-14T09:26:02.563Z,15.40
2017-09-14T09:34:51.926Z,15.40
2017-09-14T09:37:20.255Z,15.50
2017-09-14T09:39:48.703Z,15.50
2017-09-14T09:42:37.010Z,15.40
2017-09-14T09:45:08.858Z,15.50
2017-09-14T09:47:37.183Z,15.30
2017-09-14T09:50:05.474Z,15.30
2017-09-14T09:52:33.790Z,15.30
2017-09-14T09:55:02.042Z,15.40
2017-09-14T09:57:30.233Z,15.30
2017-09-14T09:59:58.410Z,15.30
2017-09-14T10:02:26.788Z,15.30
2017-09-14T10:04:55.027Z,15.60
2017-09-14T10:07:24.367Z,15.60
2017-09-14T10:09:52.564Z,15.60
2017-09-14T10:12:21.229Z,15.80
2017-09-14T10:15:08.855Z,15.90
2017-09-14T10:17:37.344Z,15.80
2017-09-14T10:20:05.886Z,15.80
2017-09-14T10:22:37.688Z,15.70
2017-09-14T10:25:05.918Z,15.60
2017-09-14T10:30:43.811Z,15.50
2017-09-14T10:41:09.970Z,15.90
2017-09-14T10:46:12.075Z,16.20
2017-09-14T10:48:55.164Z,16.30
2017-09-14T10:51:23.759Z,16.60
2017-09-14T10:53:52.063Z,16.70
2017-09-14T10:56:20.349Z,16.40
2017-09-14T11:04:42.672Z,16.00
2017-09-14T11:07:10.943Z,16.00
2017-09-14T11:09:39.669Z,16.00
2017-09-14T11:15:28.523Z,16.30
2017-09-14T11:17:56.827Z,16.40
2017-09-14T11:20:38.006Z,16.40
2017-09-14T11:23:20.058Z,16.40
2017-09-14T11:25:48.312Z,16.40
2017-09-14T11:28:18.521Z,16.60
2017-09-14T11:31:02.445Z,16.80
2017-09-14T11:33:47.877Z,16.90
2017-09-14T11:39:13.193Z,17.10
2017-09-14T11:48:11.324Z,17.90
2017-09-14T11:50:39.519Z,17.80
2017-09-14T11:53:08.273Z,17.60
2017-09-14T11:58:27.973Z,17.10
2017-09-14T12:00:56.623Z,17.10
2017-09-14T12:06:17.470Z,17.20
2017-09-14T12:08:45.731Z,17.20
2017-09-14T12:11:13.912Z,17.30
2017-09-14T12:16:44.987Z,17.50
2017-09-14T12:19:20.738Z,17.50
2017-09-14T12:21:48.889Z,17.50
2017-09-14T12:29:59.082Z,17.50
2017-09-14T12:32:27.266Z,17.40
2017-09-14T12:34:55.516Z,17.40
2017-09-14T12:40:04.812Z,17.70
2017-09-14T12:42:39.651Z,17.80
2017-09-14T12:45:07.858Z,17.90
2017-09-14T12:47:36.062Z,17.80
2017-09-14T12:50:07.196Z,17.80
2017-09-14T12:52:35.361Z,17.80
2017-09-14T12:55:03.551Z,17.90
2017-09-14T12:57:31.770Z,18.00
2017-09-14T13:02:42.306Z,18.00
2017-09-14T13:08:09.159Z,18.00
2017-09-14T13:10:37.326Z,17.80
2017-09-14T13:13:09.823Z,17.80
2017-09-14T13:15:37.978Z,17.60
2017-09-14T13:18:09.320Z,17.60
2017-09-14T13:20:37.855Z,17.60
2017-09-14T13:23:05.994Z,17.60
2017-09-14T13:25:34.205Z,17.50
2017-09-14T13:28:02.432Z,17.40
2017-09-14T13:30:32.167Z,17.40
2017-09-14T13:33:02.138Z,17.40
2017-09-14T13:38:49.801Z,17.50
2017-09-14T13:41:17.988Z,17.50
2017-09-14T13:46:56.164Z,17.40
2017-09-14T13:49:24.310Z,17.40
2017-09-14T13:51:52.522Z,17.30
2017-09-14T13:54:20.686Z,17.30
2017-09-14T13:56:48.912Z,17.20
2017-09-14T14:01:49.485Z,17.00
2017-09-14T14:04:18.027Z,17.00
2017-09-14T14:06:46.219Z,17.00
2017-09-14T14:14:57.916Z,16.70
2017-09-14T14:17:27.035Z,16.50
2017-09-14T14:19:55.311Z,16.50
2017-09-14T14:24:56.361Z,16.70
2017-09-14T14:30:35.590Z,16.60
2017-09-14T14:33:03.786Z,16.50
2017-09-14T14:35:36.480Z,16.40
2017-09-14T14:38:07.312Z,16.30
2017-09-14T14:40:35.513Z,16.40
2017-09-14T14:43:03.768Z,16.20
2017-09-14T14:45:32.034Z,15.80
2017-09-14T14:48:00.279Z,15.60
2017-09-14T14:50:28.479Z,15.40
2017-09-14T14:56:06.921Z,15.20
2017-09-14T15:01:45.200Z,15.00
2017-09-14T15:04:13.378Z,15.10
2017-09-14T15:06:42.030Z,15.20
2017-09-14T15:15:04.696Z,15.40
2017-09-14T15:17:55.369Z,15.50
2017-09-14T15:23:37.185Z,15.40
2017-09-14T15:26:24.951Z,15.10
2017-09-14T15:28:53.156Z,15.10
2017-09-14T15:31:21.514Z,15.00
2017-09-14T15:36:36.735Z,14.90
2017-09-14T15:39:12.793Z,14.90
2017-09-14T15:41:43.385Z,14.80
2017-09-14T16:19:33.171Z,14.20
2017-09-14T16:22:01.294Z,14.10
2017-09-14T16:24:39.772Z,14.10
2017-09-14T16:27:08.404Z,14.00
2017-09-14T16:29:36.694Z,14.00
2017-09-14T16:32:11.224Z,14.00
2017-09-14T16:34:39.415Z,14.10
2017-09-14T16:37:07.635Z,14.00
2017-09-14T16:39:36.066Z,14.00
2017-09-14T16:42:05.158Z,13.90
2017-09-14T16:44:33.299Z,13.80
2017-09-14T16:47:01.534Z,13.80
2017-09-14T16:49:29.739Z,13.80
2017-09-14T16:51:58.810Z,13.70
2017-09-14T16:54:26.960Z,13.70
2017-09-14T16:56:55.079Z,13.70
2017-09-14T16:59:38.209Z,13.70
2017-09-14T17:02:07.686Z,13.60
2017-09-14T17:04:36.354Z,13.60
2017-09-14T17:07:04.574Z,13.50
2017-09-14T17:09:43.276Z,13.50
2017-09-14T17:12:22.626Z,13.50
2017-09-14T17:15:01.254Z,13.50
2017-09-14T17:17:29.407Z,13.40
2017-09-14T17:19:57.623Z,13.40
2017-09-14T17:22:25.846Z,13.40
2017-09-14T17:25:05.093Z,13.30
2017-09-14T17:27:33.274Z,13.30
2017-09-14T17:30:01.558Z,13.30
2017-09-14T17:32:30.705Z,13.30
2017-09-14T17:34:59.024Z,13.30
2017-09-14T17:37:28.268Z,13.20
2017-09-14T17:40:00.479Z,13.20
2017-09-14T17:42:28.943Z,13.20
2017-09-14T17:45:01.148Z,13.20
2017-09-14T17:47:29.289Z,13.10
2017-09-14T17:49:57.415Z,13.10
2017-09-14T17:52:25.619Z,13.00
2017-09-14T17:54:53.751Z,13.00
2017-09-14T17:57:22.208Z,13.00
2017-09-14T17:59:51.451Z,13.00
2017-09-14T18:02:19.720Z,13.00
2017-09-14T18:04:47.935Z,13.00
2017-09-14T18:07:16.159Z,13.00
2017-09-14T18:09:44.375Z,13.00
2017-09-14T18:12:13.303Z,12.90
2017-09-14T18:14:41.447Z,12.90
2017-09-14T18:17:09.623Z,12.70
2017-09-14T18:19:37.835Z,12.60
2017-09-14T18:22:06.038Z,12.50
2017-09-14T18:24:34.196Z,12.40
2017-09-14T18:27:02.395Z,12.40
2017-09-14T18:29:31.135Z,12.40
2017-09-14T18:31:59.262Z,12.40
2017-09-14T18:34:27.396Z,12.30
2017-09-14T18:36:55.548Z,12.30
2017-09-14T18:39:23.735Z,12.20
2017-09-14T18:41:51.954Z,12.20
2017-09-14T18:44:20.831Z,12.20
2017-09-14T18:46:49.354Z,12.20
2017-09-14T18:49:17.568Z,12.20
2017-09-14T18:51:46.658Z,12.30
2017-09-14T18:54:14.875Z,12.20
2017-09-14T18:56:43.208Z,12.30
2017-09-14T18:59:11.429Z,12.20
2017-09-14T19:01:40.615Z,12.20
2017-09-14T19:04:08.783Z,12.10
2017-09-14T19:06:36.906Z,12.10
2017-09-14T19:09:05.211Z,12.10
2017-09-14T19:11:33.341Z,12.10
2017-09-14T19:14:01.455Z,12.10
2017-09-14T19:16:29.627Z,12.00
2017-09-14T19:18:57.752Z,12.10
2017-09-14T19:21:25.901Z,12.10
2017-09-14T19:23:54.083Z,12.10
2017-09-14T19:26:22.247Z,12.10
2017-09-14T19:28:50.463Z,12.10
2017-09-14T19:31:18.586Z,12.10
2017-09-14T19:33:46.759Z,12.10
2017-09-14T19:36:15.125Z,12.10
2017-09-14T19:39:03.325Z,12.10
2017-09-14T19:41:31.455Z,12.10
2017-09-14T19:44:10.330Z,12.10
2017-09-14T19:46:39.726Z,12.10
2017-09-14T19:49:07.842Z,12.10
2017-09-14T19:51:36.843Z,12.10
2017-09-14T19:54:05.038Z,12.10
2017-09-14T19:56:33.248Z,12.10
2017-09-14T19:59:02.167Z,12.10
2017-09-14T20:01:31.521Z,12.10
2017-09-14T20:04:00.515Z,12.10
2017-09-14T20:06:29.423Z,12.10
2017-09-14T20:08:57.615Z,12.00
2017-09-14T20:11:25.764Z,12.00
2017-09-14T20:13:55.229Z,12.00
2017-09-14T20:16:23.423Z,12.00
2017-09-14T20:18:56.358Z,11.90
2017-09-14T20:21:24.479Z,12.00
2017-09-14T20:23:52.631Z,12.10
2017-09-14T20:26:20.846Z,12.10
2017-09-14T20:28:49.036Z,12.10
2017-09-14T20:31:18.084Z,12.10
2017-09-14T20:33:46.318Z,12.10
2017-09-14T20:36:14.524Z,12.10
2017-09-14T20:38:42.715Z,12.00
2017-09-14T20:41:11.007Z,12.00
2017-09-14T20:43:39.201Z,11.80
2017-09-14T20:46:07.671Z,11.70
2017-09-14T20:48:35.810Z,11.60
2017-09-14T20:51:03.992Z,11.60
2017-09-14T20:53:32.260Z,11.70
2017-09-14T20:56:00.415Z,11.70
2017-09-14T20:58:31.650Z,11.80
2017-09-14T21:01:03.667Z,11.80
2017-09-14T21:03:31.874Z,11.80
2017-09-14T21:06:00.014Z,11.80
2017-09-14T21:08:28.157Z,11.80
2017-09-14T21:10:56.791Z,11.80
2017-09-14T21:13:24.904Z,11.80
2017-09-14T21:15:53.084Z,11.70
2017-09-14T21:18:21.247Z,11.60
2017-09-14T21:20:49.395Z,11.60
2017-09-14T21:23:17.516Z,11.50
2017-09-14T21:25:45.695Z,11.50
2017-09-14T21:28:13.905Z,11.40
2017-09-14T21:30:42.807Z,11.40
2017-09-14T21:33:10.971Z,11.40
2017-09-14T21:35:39.184Z,11.30
2017-09-14T21:38:07.449Z,11.30
2017-09-14T21:40:35.654Z,11.30
2017-09-14T21:43:04.500Z,11.30
2017-09-14T21:45:32.669Z,11.30
2017-09-14T21:48:01.599Z,11.30
2017-09-14T21:50:29.751Z,11.20
2017-09-14T21:57:33.239Z,11.30
2017-09-14T22:00:01.717Z,11.40
2017-09-14T22:02:29.995Z,11.60
2017-09-14T22:04:58.205Z,11.70
2017-09-14T22:07:26.462Z,11.80
2017-09-14T22:09:54.625Z,11.80
2017-09-14T22:12:22.846Z,11.80
2017-09-14T22:14:51.031Z,11.90
2017-09-14T22:17:19.215Z,11.90
2017-09-14T22:19:47.448Z,11.90
2017-09-14T22:22:15.598Z,11.90
2017-09-14T22:24:43.777Z,11.90
2017-09-14T22:27:11.965Z,12.00
2017-09-14T22:29:40.140Z,12.00
2017-09-14T22:32:09.078Z,12.00
2017-09-14T22:34:37.281Z,12.00
2017-09-14T22:37:05.435Z,12.10
2017-09-14T22:39:34.331Z,12.20
2017-09-14T22:42:02.490Z,12.20
2017-09-14T22:44:30.619Z,12.30
2017-09-14T22:46:58.803Z,12.30
2017-09-14T22:49:26.986Z,12.40
2017-09-14T22:51:55.082Z,12.40
2017-09-14T22:54:24.072Z,12.40
2017-09-14T22:56:53.307Z,12.40
2017-09-14T22:59:21.430Z,12.40
2017-09-14T23:01:49.573Z,12.40
2017-09-14T23:04:21.239Z,12.40
2017-09-14T23:06:49.409Z,12.40
2017-09-14T23:09:17.602Z,12.40
2017-09-14T23:11:45.770Z,12.40
2017-09-14T23:14:13.903Z,12.40
2017-09-14T23:16:42.080Z,12.30
2017-09-14T23:19:10.258Z,12.20
2017-09-14T23:21:38.496Z,12.10
2017-09-14T23:24:06.749Z,12.10
2017-09-14T23:26:34.947Z,12.00
2017-09-14T23:29:03.131Z,12.00
2017-09-14T23:31:31.366Z,11.90
2017-09-14T23:33:59.536Z,12.00
2017-09-14T23:36:27.720Z,11.90
2017-09-14T23:38:55.918Z,11.80
2017-09-14T23:41:24.897Z,11.70
2017-09-14T23:43:53.778Z,11.70
2017-09-14T23:46:21.955Z,11.60
2017-09-14T23:48:50.092Z,11.60
2017-09-14T23:51:18.304Z,11.60
2017-09-14T23:53:46.654Z,11.60
2017-09-14T23:56:14.802Z,11.70
2017-09-14T23:58:42.962Z,11.80
